sensor_id;sensor_type;location;lat;lon;timestamp;P1;durP1;ratioP1;P2;durP2;ratioP2
21721;SDS011;11023;48.274;7.794;2023-05-07T00:01:49;7.55;;;5.40;;
21721;SDS011;11023;48.274;7.794;2023-05-07T00:04:15;6.65;;;4.88;;
21721;SDS011;11023;48.274;7.794;2023-05-07T00:06:40;9.52;;;5.82;;
21721;SDS011;11023;48.274;7.794;2023-05-07T00:09:06;11.48;;;5.65;;
21721;SDS011;11023;48.274;7.794;2023-05-07T00:11:32;9.13;;;5.43;;
21721;SDS011;11023;48.274;7.794;2023-05-07T00:13:58;8.77;;;5.38;;
21721;SDS011;11023;48.274;7.794;2023-05-07T00:16:24;9.82;;;5.57;;
21721;SDS011;11023;48.274;7.794;2023-05-07T00:18:50;9.05;;;5.53;;
21721;SDS011;11023;48.274;7.794;2023-05-07T00:21:15;8.00;;;4.75;;
21721;SDS011;11023;48.274;7.794;2023-05-07T00:23:41;12.88;;;5.80;;
21721;SDS011;11023;48.274;7.794;2023-05-07T00:26:07;8.48;;;5.07;;
21721;SDS011;11023;48.274;7.794;2023-05-07T00:28:32;8.02;;;5.03;;
21721;SDS011;11023;48.274;7.794;2023-05-07T00:30:58;8.60;;;5.30;;
21721;SDS011;11023;48.274;7.794;2023-05-07T00:33:24;7.32;;;4.95;;
21721;SDS011;11023;48.274;7.794;2023-05-07T00:35:51;7.28;;;4.85;;
21721;SDS011;11023;48.274;7.794;2023-05-07T00:38:19;7.35;;;4.63;;
21721;SDS011;11023;48.274;7.794;2023-05-07T00:40:44;5.93;;;4.70;;
21721;SDS011;11023;48.274;7.794;2023-05-07T00:43:10;6.82;;;4.82;;
21721;SDS011;11023;48.274;7.794;2023-05-07T00:45:38;6.93;;;4.60;;
21721;SDS011;11023;48.274;7.794;2023-05-07T00:48:04;9.00;;;5.18;;
21721;SDS011;11023;48.274;7.794;2023-05-07T00:50:30;8.35;;;4.75;;
21721;SDS011;11023;48.274;7.794;2023-05-07T00:52:57;10.77;;;5.00;;
21721;SDS011;11023;48.274;7.794;2023-05-07T00:55:23;7.97;;;5.07;;
21721;SDS011;11023;48.274;7.794;2023-05-07T00:57:49;9.43;;;5.43;;
21721;SDS011;11023;48.274;7.794;2023-05-07T01:00:16;8.90;;;5.25;;
21721;SDS011;11023;48.274;7.794;2023-05-07T01:02:42;9.77;;;5.25;;
21721;SDS011;11023;48.274;7.794;2023-05-07T01:05:08;9.88;;;6.10;;
21721;SDS011;11023;48.274;7.794;2023-05-07T01:07:36;11.40;;;5.30;;
21721;SDS011;11023;48.274;7.794;2023-05-07T01:10:03;8.45;;;5.15;;
21721;SDS011;11023;48.274;7.794;2023-05-07T01:12:31;9.50;;;5.80;;
21721;SDS011;11023;48.274;7.794;2023-05-07T01:14:57;13.15;;;6.07;;
21721;SDS011;11023;48.274;7.794;2023-05-07T01:17:23;10.75;;;6.10;;
21721;SDS011;11023;48.274;7.794;2023-05-07T01:19:49;7.65;;;5.57;;
21721;SDS011;11023;48.274;7.794;2023-05-07T01:22:17;9.20;;;6.20;;
21721;SDS011;11023;48.274;7.794;2023-05-07T01:24:59;10.45;;;5.95;;
21721;SDS011;11023;48.274;7.794;2023-05-07T01:27:26;9.02;;;5.13;;
21721;SDS011;11023;48.274;7.794;2023-05-07T01:29:52;8.27;;;5.30;;
21721;SDS011;11023;48.274;7.794;2023-05-07T01:32:23;7.18;;;5.22;;
21721;SDS011;11023;48.274;7.794;2023-05-07T01:35:11;6.18;;;4.40;;
21721;SDS011;11023;48.274;7.794;2023-05-07T01:37:40;7.05;;;5.10;;
21721;SDS011;11023;48.274;7.794;2023-05-07T01:40:06;12.15;;;5.13;;
21721;SDS011;11023;48.274;7.794;2023-05-07T01:42:33;11.85;;;5.60;;
21721;SDS011;11023;48.274;7.794;2023-05-07T01:44:58;8.02;;;5.32;;
21721;SDS011;11023;48.274;7.794;2023-05-07T01:47:25;8.20;;;5.43;;
21721;SDS011;11023;48.274;7.794;2023-05-07T01:49:51;8.02;;;5.68;;
21721;SDS011;11023;48.274;7.794;2023-05-07T01:52:17;11.23;;;5.57;;
21721;SDS011;11023;48.274;7.794;2023-05-07T01:54:42;9.15;;;5.68;;
21721;SDS011;11023;48.274;7.794;2023-05-07T01:57:08;10.80;;;5.55;;
21721;SDS011;11023;48.274;7.794;2023-05-07T01:59:33;7.35;;;5.50;;
21721;SDS011;11023;48.274;7.794;2023-05-07T02:01:59;12.25;;;5.55;;
21721;SDS011;11023;48.274;7.794;2023-05-07T02:04:25;7.80;;;4.65;;
21721;SDS011;11023;48.274;7.794;2023-05-07T02:06:51;7.63;;;5.10;;
21721;SDS011;11023;48.274;7.794;2023-05-07T02:09:17;7.05;;;5.30;;
21721;SDS011;11023;48.274;7.794;2023-05-07T02:11:43;9.95;;;5.53;;
21721;SDS011;11023;48.274;7.794;2023-05-07T02:14:09;8.10;;;5.30;;
21721;SDS011;11023;48.274;7.794;2023-05-07T02:16:35;8.88;;;5.20;;
21721;SDS011;11023;48.274;7.794;2023-05-07T02:19:01;10.63;;;5.10;;
21721;SDS011;11023;48.274;7.794;2023-05-07T02:21:27;7.70;;;5.20;;
21721;SDS011;11023;48.274;7.794;2023-05-07T02:23:53;6.93;;;5.20;;
21721;SDS011;11023;48.274;7.794;2023-05-07T02:26:19;10.10;;;5.75;;
21721;SDS011;11023;48.274;7.794;2023-05-07T02:28:46;12.05;;;5.10;;
21721;SDS011;11023;48.274;7.794;2023-05-07T02:31:12;8.50;;;5.20;;
21721;SDS011;11023;48.274;7.794;2023-05-07T02:33:38;9.82;;;5.35;;
21721;SDS011;11023;48.274;7.794;2023-05-07T02:36:07;10.38;;;5.35;;
21721;SDS011;11023;48.274;7.794;2023-05-07T02:38:34;11.68;;;5.72;;
21721;SDS011;11023;48.274;7.794;2023-05-07T02:41:00;8.45;;;5.75;;
21721;SDS011;11023;48.274;7.794;2023-05-07T02:43:26;13.90;;;6.72;;
21721;SDS011;11023;48.274;7.794;2023-05-07T02:48:47;13.13;;;6.85;;
21721;SDS011;11023;48.274;7.794;2023-05-07T02:51:12;12.02;;;8.05;;
21721;SDS011;11023;48.274;7.794;2023-05-07T02:53:38;15.80;;;7.32;;
21721;SDS011;11023;48.274;7.794;2023-05-07T02:56:04;11.93;;;6.70;;
21721;SDS011;11023;48.274;7.794;2023-05-07T02:58:31;8.23;;;5.82;;
21721;SDS011;11023;48.274;7.794;2023-05-07T03:00:57;9.95;;;5.40;;
21721;SDS011;11023;48.274;7.794;2023-05-07T03:03:22;10.02;;;5.85;;
21721;SDS011;11023;48.274;7.794;2023-05-07T03:05:48;7.40;;;5.30;;
21721;SDS011;11023;48.274;7.794;2023-05-07T03:08:14;9.18;;;5.10;;
21721;SDS011;11023;48.274;7.794;2023-05-07T03:10:39;6.53;;;4.45;;
21721;SDS011;11023;48.274;7.794;2023-05-07T03:13:05;10.02;;;4.30;;
21721;SDS011;11023;48.274;7.794;2023-05-07T03:15:31;6.65;;;4.38;;
21721;SDS011;11023;48.274;7.794;2023-05-07T03:17:56;4.88;;;3.78;;
21721;SDS011;11023;48.274;7.794;2023-05-07T03:20:22;5.03;;;3.60;;
21721;SDS011;11023;48.274;7.794;2023-05-07T03:22:48;5.75;;;3.88;;
21721;SDS011;11023;48.274;7.794;2023-05-07T03:25:14;4.65;;;4.00;;
21721;SDS011;11023;48.274;7.794;2023-05-07T03:27:39;6.57;;;4.20;;
21721;SDS011;11023;48.274;7.794;2023-05-07T03:30:07;4.90;;;3.75;;
21721;SDS011;11023;48.274;7.794;2023-05-07T03:32:34;6.15;;;4.35;;
21721;SDS011;11023;48.274;7.794;2023-05-07T03:35:00;6.53;;;3.80;;
21721;SDS011;11023;48.274;7.794;2023-05-07T03:37:26;7.50;;;4.45;;
21721;SDS011;11023;48.274;7.794;2023-05-07T03:39:51;8.85;;;4.95;;
21721;SDS011;11023;48.274;7.794;2023-05-07T03:42:17;8.27;;;4.70;;
21721;SDS011;11023;48.274;7.794;2023-05-07T03:44:43;7.22;;;5.30;;
21721;SDS011;11023;48.274;7.794;2023-05-07T03:47:08;11.15;;;6.05;;
21721;SDS011;11023;48.274;7.794;2023-05-07T03:49:35;7.45;;;5.07;;
21721;SDS011;11023;48.274;7.794;2023-05-07T03:52:01;6.80;;;4.90;;
21721;SDS011;11023;48.274;7.794;2023-05-07T03:54:26;6.05;;;5.28;;
21721;SDS011;11023;48.274;7.794;2023-05-07T03:56:52;7.20;;;5.32;;
21721;SDS011;11023;48.274;7.794;2023-05-07T03:59:17;7.93;;;5.55;;
21721;SDS011;11023;48.274;7.794;2023-05-07T04:01:43;11.05;;;5.40;;
21721;SDS011;11023;48.274;7.794;2023-05-07T04:04:09;11.32;;;5.93;;
21721;SDS011;11023;48.274;7.794;2023-05-07T04:06:35;6.00;;;4.90;;
21721;SDS011;11023;48.274;7.794;2023-05-07T04:09:00;7.43;;;5.53;;
21721;SDS011;11023;48.274;7.794;2023-05-07T04:11:26;9.00;;;5.70;;
21721;SDS011;11023;48.274;7.794;2023-05-07T04:13:52;7.45;;;5.50;;
21721;SDS011;11023;48.274;7.794;2023-05-07T04:16:18;7.10;;;5.30;;
21721;SDS011;11023;48.274;7.794;2023-05-07T04:18:43;6.55;;;5.78;;
21721;SDS011;11023;48.274;7.794;2023-05-07T04:21:15;6.43;;;5.38;;
21721;SDS011;11023;48.274;7.794;2023-05-07T04:23:42;9.63;;;5.70;;
21721;SDS011;11023;48.274;7.794;2023-05-07T04:26:07;7.50;;;5.60;;
21721;SDS011;11023;48.274;7.794;2023-05-07T04:28:34;6.03;;;5.43;;
21721;SDS011;11023;48.274;7.794;2023-05-07T04:31:00;8.15;;;5.45;;
21721;SDS011;11023;48.274;7.794;2023-05-07T04:33:25;8.38;;;5.07;;
21721;SDS011;11023;48.274;7.794;2023-05-07T04:35:51;7.53;;;5.03;;
21721;SDS011;11023;48.274;7.794;2023-05-07T04:38:17;5.75;;;4.93;;
21721;SDS011;11023;48.274;7.794;2023-05-07T04:40:43;8.27;;;4.82;;
21721;SDS011;11023;48.274;7.794;2023-05-07T04:43:09;10.93;;;4.90;;
21721;SDS011;11023;48.274;7.794;2023-05-07T04:45:35;6.30;;;5.15;;
21721;SDS011;11023;48.274;7.794;2023-05-07T04:48:01;7.47;;;5.18;;
21721;SDS011;11023;48.274;7.794;2023-05-07T04:50:27;8.07;;;5.03;;
21721;SDS011;11023;48.274;7.794;2023-05-07T04:52:52;7.57;;;5.60;;
21721;SDS011;11023;48.274;7.794;2023-05-07T04:55:18;6.10;;;5.53;;
21721;SDS011;11023;48.274;7.794;2023-05-07T04:57:44;6.82;;;5.47;;
21721;SDS011;11023;48.274;7.794;2023-05-07T05:00:10;6.32;;;4.60;;
21721;SDS011;11023;48.274;7.794;2023-05-07T05:02:39;7.95;;;5.70;;
21721;SDS011;11023;48.274;7.794;2023-05-07T05:05:05;8.10;;;5.78;;
21721;SDS011;11023;48.274;7.794;2023-05-07T05:07:31;8.02;;;5.18;;
21721;SDS011;11023;48.274;7.794;2023-05-07T05:09:57;9.55;;;5.30;;
21721;SDS011;11023;48.274;7.794;2023-05-07T05:12:23;7.22;;;5.90;;
21721;SDS011;11023;48.274;7.794;2023-05-07T05:14:48;9.75;;;5.00;;
21721;SDS011;11023;48.274;7.794;2023-05-07T05:17:15;7.53;;;5.07;;
21721;SDS011;11023;48.274;7.794;2023-05-07T05:19:40;7.93;;;5.30;;
21721;SDS011;11023;48.274;7.794;2023-05-07T05:22:06;5.07;;;4.28;;
21721;SDS011;11023;48.274;7.794;2023-05-07T05:24:31;6.35;;;4.95;;
21721;SDS011;11023;48.274;7.794;2023-05-07T05:26:57;5.30;;;4.40;;
21721;SDS011;11023;48.274;7.794;2023-05-07T05:29:24;5.70;;;4.72;;
21721;SDS011;11023;48.274;7.794;2023-05-07T05:31:50;6.25;;;4.70;;
21721;SDS011;11023;48.274;7.794;2023-05-07T05:34:16;7.55;;;4.93;;
21721;SDS011;11023;48.274;7.794;2023-05-07T05:36:42;6.57;;;5.20;;
21721;SDS011;11023;48.274;7.794;2023-05-07T05:39:08;6.60;;;4.53;;
21721;SDS011;11023;48.274;7.794;2023-05-07T05:41:34;6.75;;;4.78;;
21721;SDS011;11023;48.274;7.794;2023-05-07T05:44:00;6.68;;;5.13;;
21721;SDS011;11023;48.274;7.794;2023-05-07T05:46:25;5.50;;;4.75;;
21721;SDS011;11023;48.274;7.794;2023-05-07T05:48:51;6.68;;;5.97;;
21721;SDS011;11023;48.274;7.794;2023-05-07T05:51:16;5.97;;;4.88;;
21721;SDS011;11023;48.274;7.794;2023-05-07T05:53:42;6.03;;;5.13;;
21721;SDS011;11023;48.274;7.794;2023-05-07T05:56:08;4.72;;;4.15;;
21721;SDS011;11023;48.274;7.794;2023-05-07T05:58:33;8.85;;;4.47;;
21721;SDS011;11023;48.274;7.794;2023-05-07T06:00:59;4.90;;;4.32;;
21721;SDS011;11023;48.274;7.794;2023-05-07T06:03:27;5.15;;;4.18;;
21721;SDS011;11023;48.274;7.794;2023-05-07T06:05:53;6.43;;;3.97;;
21721;SDS011;11023;48.274;7.794;2023-05-07T06:08:18;5.88;;;4.18;;
21721;SDS011;11023;48.274;7.794;2023-05-07T06:10:44;7.22;;;4.75;;
21721;SDS011;11023;48.274;7.794;2023-05-07T06:13:10;4.93;;;4.43;;
21721;SDS011;11023;48.274;7.794;2023-05-07T06:15:36;9.93;;;5.38;;
21721;SDS011;11023;48.274;7.794;2023-05-07T06:18:02;7.45;;;5.43;;
21721;SDS011;11023;48.274;7.794;2023-05-07T06:20:27;6.18;;;4.70;;
21721;SDS011;11023;48.274;7.794;2023-05-07T06:22:53;7.93;;;5.20;;
21721;SDS011;11023;48.274;7.794;2023-05-07T06:25:19;6.22;;;5.03;;
21721;SDS011;11023;48.274;7.794;2023-05-07T06:27:45;7.18;;;5.10;;
21721;SDS011;11023;48.274;7.794;2023-05-07T06:30:10;5.35;;;4.85;;
21721;SDS011;11023;48.274;7.794;2023-05-07T06:32:36;6.90;;;4.68;;
21721;SDS011;11023;48.274;7.794;2023-05-07T06:35:02;5.82;;;4.38;;
21721;SDS011;11023;48.274;7.794;2023-05-07T06:37:28;6.07;;;4.35;;
21721;SDS011;11023;48.274;7.794;2023-05-07T06:39:53;5.50;;;3.88;;
21721;SDS011;11023;48.274;7.794;2023-05-07T06:42:19;5.97;;;3.78;;
21721;SDS011;11023;48.274;7.794;2023-05-07T06:44:45;6.40;;;4.35;;
21721;SDS011;11023;48.274;7.794;2023-05-07T06:47:10;4.45;;;3.55;;
21721;SDS011;11023;48.274;7.794;2023-05-07T06:49:36;6.00;;;3.90;;
21721;SDS011;11023;48.274;7.794;2023-05-07T06:52:02;4.95;;;4.10;;
21721;SDS011;11023;48.274;7.794;2023-05-07T06:54:28;4.53;;;3.80;;
21721;SDS011;11023;48.274;7.794;2023-05-07T06:56:54;6.22;;;4.88;;
21721;SDS011;11023;48.274;7.794;2023-05-07T06:59:20;6.63;;;4.72;;
21721;SDS011;11023;48.274;7.794;2023-05-07T07:01:45;5.60;;;3.92;;
21721;SDS011;11023;48.274;7.794;2023-05-07T07:04:11;5.03;;;4.32;;
21721;SDS011;11023;48.274;7.794;2023-05-07T07:06:37;5.82;;;4.15;;
21721;SDS011;11023;48.274;7.794;2023-05-07T07:09:02;9.43;;;5.18;;
21721;SDS011;11023;48.274;7.794;2023-05-07T07:11:28;5.97;;;4.60;;
21721;SDS011;11023;48.274;7.794;2023-05-07T07:13:54;8.40;;;5.35;;
21721;SDS011;11023;48.274;7.794;2023-05-07T07:16:20;7.22;;;4.88;;
21721;SDS011;11023;48.274;7.794;2023-05-07T07:18:46;7.65;;;5.15;;
21721;SDS011;11023;48.274;7.794;2023-05-07T07:21:13;6.80;;;4.80;;
21721;SDS011;11023;48.274;7.794;2023-05-07T07:23:39;7.00;;;4.32;;
21721;SDS011;11023;48.274;7.794;2023-05-07T07:26:05;5.55;;;4.20;;
21721;SDS011;11023;48.274;7.794;2023-05-07T07:28:31;8.57;;;4.13;;
21721;SDS011;11023;48.274;7.794;2023-05-07T07:30:57;7.47;;;4.60;;
21721;SDS011;11023;48.274;7.794;2023-05-07T07:33:23;7.25;;;4.82;;
21721;SDS011;11023;48.274;7.794;2023-05-07T07:35:49;5.88;;;4.20;;
21721;SDS011;11023;48.274;7.794;2023-05-07T07:38:15;6.00;;;4.25;;
21721;SDS011;11023;48.274;7.794;2023-05-07T07:40:40;7.80;;;3.90;;
21721;SDS011;11023;48.274;7.794;2023-05-07T07:43:08;6.50;;;4.28;;
21721;SDS011;11023;48.274;7.794;2023-05-07T07:45:34;5.75;;;4.30;;
21721;SDS011;11023;48.274;7.794;2023-05-07T07:48:00;4.93;;;4.40;;
21721;SDS011;11023;48.274;7.794;2023-05-07T07:50:26;6.05;;;4.35;;
21721;SDS011;11023;48.274;7.794;2023-05-07T07:52:51;7.43;;;4.85;;
21721;SDS011;11023;48.274;7.794;2023-05-07T07:55:19;7.38;;;4.85;;
21721;SDS011;11023;48.274;7.794;2023-05-07T07:57:48;7.47;;;4.40;;
21721;SDS011;11023;48.274;7.794;2023-05-07T08:00:14;6.03;;;4.70;;
21721;SDS011;11023;48.274;7.794;2023-05-07T08:02:41;7.95;;;4.22;;
21721;SDS011;11023;48.274;7.794;2023-05-07T08:05:07;8.30;;;4.68;;
21721;SDS011;11023;48.274;7.794;2023-05-07T08:07:34;5.07;;;3.95;;
21721;SDS011;11023;48.274;7.794;2023-05-07T08:10:00;6.90;;;4.88;;
21721;SDS011;11023;48.274;7.794;2023-05-07T08:12:27;6.07;;;4.60;;
21721;SDS011;11023;48.274;7.794;2023-05-07T08:14:56;5.43;;;4.45;;
21721;SDS011;11023;48.274;7.794;2023-05-07T08:17:22;6.47;;;4.38;;
21721;SDS011;11023;48.274;7.794;2023-05-07T08:19:48;6.40;;;4.95;;
21721;SDS011;11023;48.274;7.794;2023-05-07T08:22:13;6.43;;;4.30;;
21721;SDS011;11023;48.274;7.794;2023-05-07T08:24:40;6.72;;;3.63;;
21721;SDS011;11023;48.274;7.794;2023-05-07T08:27:05;4.55;;;4.03;;
21721;SDS011;11023;48.274;7.794;2023-05-07T08:29:31;4.72;;;3.55;;
21721;SDS011;11023;48.274;7.794;2023-05-07T08:31:57;6.10;;;4.28;;
21721;SDS011;11023;48.274;7.794;2023-05-07T08:34:25;6.13;;;3.88;;
21721;SDS011;11023;48.274;7.794;2023-05-07T08:36:51;6.25;;;3.75;;
21721;SDS011;11023;48.274;7.794;2023-05-07T08:39:17;5.93;;;3.95;;
21721;SDS011;11023;48.274;7.794;2023-05-07T08:41:46;6.38;;;4.90;;
21721;SDS011;11023;48.274;7.794;2023-05-07T08:44:14;9.80;;;4.88;;
21721;SDS011;11023;48.274;7.794;2023-05-07T08:46:45;7.90;;;5.15;;
21721;SDS011;11023;48.274;7.794;2023-05-07T08:49:13;6.10;;;4.88;;
21721;SDS011;11023;48.274;7.794;2023-05-07T08:51:39;6.43;;;5.00;;
21721;SDS011;11023;48.274;7.794;2023-05-07T08:54:07;7.50;;;4.63;;
21721;SDS011;11023;48.274;7.794;2023-05-07T08:56:34;6.55;;;4.78;;
21721;SDS011;11023;48.274;7.794;2023-05-07T08:58:59;6.97;;;4.40;;
21721;SDS011;11023;48.274;7.794;2023-05-07T09:01:25;9.85;;;4.75;;
21721;SDS011;11023;48.274;7.794;2023-05-07T09:03:51;8.18;;;4.88;;
21721;SDS011;11023;48.274;7.794;2023-05-07T09:06:18;7.10;;;5.18;;
21721;SDS011;11023;48.274;7.794;2023-05-07T09:08:50;4.80;;;4.05;;
21721;SDS011;11023;48.274;7.794;2023-05-07T09:11:19;7.78;;;4.72;;
21721;SDS011;11023;48.274;7.794;2023-05-07T09:13:46;7.82;;;4.05;;
21721;SDS011;11023;48.274;7.794;2023-05-07T09:16:11;3.92;;;3.42;;
21721;SDS011;11023;48.274;7.794;2023-05-07T09:18:41;3.55;;;3.15;;
21721;SDS011;11023;48.274;7.794;2023-05-07T09:21:11;7.30;;;3.88;;
21721;SDS011;11023;48.274;7.794;2023-05-07T09:23:40;11.18;;;8.45;;
21721;SDS011;11023;48.274;7.794;2023-05-07T09:26:06;6.40;;;5.75;;
21721;SDS011;11023;48.274;7.794;2023-05-07T09:28:37;5.00;;;3.90;;
21721;SDS011;11023;48.274;7.794;2023-05-07T09:31:10;4.32;;;3.60;;
21721;SDS011;11023;48.274;7.794;2023-05-07T09:33:37;4.57;;;3.20;;
21721;SDS011;11023;48.274;7.794;2023-05-07T09:36:03;5.65;;;2.90;;
21721;SDS011;11023;48.274;7.794;2023-05-07T09:38:30;7.13;;;3.92;;
21721;SDS011;11023;48.274;7.794;2023-05-07T09:43:31;8.07;;;3.72;;
21721;SDS011;11023;48.274;7.794;2023-05-07T09:46:06;5.03;;;3.47;;
21721;SDS011;11023;48.274;7.794;2023-05-07T09:48:38;6.85;;;3.42;;
21721;SDS011;11023;48.274;7.794;2023-05-07T09:53:47;4.82;;;2.42;;
21721;SDS011;11023;48.274;7.794;2023-05-07T09:56:15;3.40;;;2.30;;
21721;SDS011;11023;48.274;7.794;2023-05-07T09:58:42;4.72;;;2.60;;
21721;SDS011;11023;48.274;7.794;2023-05-07T10:01:10;4.63;;;3.10;;
21721;SDS011;11023;48.274;7.794;2023-05-07T10:03:37;4.90;;;3.60;;
21721;SDS011;11023;48.274;7.794;2023-05-07T10:06:06;6.07;;;3.80;;
21721;SDS011;11023;48.274;7.794;2023-05-07T10:08:33;6.10;;;3.83;;
21721;SDS011;11023;48.274;7.794;2023-05-07T10:11:00;6.88;;;4.50;;
21721;SDS011;11023;48.274;7.794;2023-05-07T10:13:28;7.03;;;4.35;;
21721;SDS011;11023;48.274;7.794;2023-05-07T10:15:54;5.03;;;4.10;;
21721;SDS011;11023;48.274;7.794;2023-05-07T10:18:20;5.53;;;4.50;;
21721;SDS011;11023;48.274;7.794;2023-05-07T10:20:54;6.03;;;4.20;;
21721;SDS011;11023;48.274;7.794;2023-05-07T10:23:27;6.38;;;5.00;;
21721;SDS011;11023;48.274;7.794;2023-05-07T10:25:53;10.07;;;5.32;;
21721;SDS011;11023;48.274;7.794;2023-05-07T10:28:20;7.00;;;4.82;;
21721;SDS011;11023;48.274;7.794;2023-05-07T10:33:32;6.97;;;5.35;;
21721;SDS011;11023;48.274;7.794;2023-05-07T10:36:00;8.23;;;5.80;;
21721;SDS011;11023;48.274;7.794;2023-05-07T10:38:29;6.03;;;4.50;;
21721;SDS011;11023;48.274;7.794;2023-05-07T10:40:55;5.85;;;4.50;;
21721;SDS011;11023;48.274;7.794;2023-05-07T10:43:21;6.07;;;5.13;;
21721;SDS011;11023;48.274;7.794;2023-05-07T10:48:38;8.45;;;5.03;;
21721;SDS011;11023;48.274;7.794;2023-05-07T10:51:27;6.55;;;4.78;;
21721;SDS011;11023;48.274;7.794;2023-05-07T10:56:58;6.95;;;4.80;;
21721;SDS011;11023;48.274;7.794;2023-05-07T10:59:56;7.60;;;5.45;;
21721;SDS011;11023;48.274;7.794;2023-05-07T11:02:22;9.98;;;5.40;;
21721;SDS011;11023;48.274;7.794;2023-05-07T11:07:55;6.45;;;4.38;;
21721;SDS011;11023;48.274;7.794;2023-05-07T11:11:11;6.57;;;4.38;;
21721;SDS011;11023;48.274;7.794;2023-05-07T11:13:12;7.60;;;4.10;;
21721;SDS011;11023;48.274;7.794;2023-05-07T11:15:41;8.30;;;4.10;;
21721;SDS011;11023;48.274;7.794;2023-05-07T11:18:09;6.32;;;3.75;;
21721;SDS011;11023;48.274;7.794;2023-05-07T11:26:03;3.95;;;2.80;;
21721;SDS011;11023;48.274;7.794;2023-05-07T11:28:31;4.55;;;3.47;;
21721;SDS011;11023;48.274;7.794;2023-05-07T11:31:01;6.80;;;3.60;;
21721;SDS011;11023;48.274;7.794;2023-05-07T11:33:28;6.03;;;3.47;;
21721;SDS011;11023;48.274;7.794;2023-05-07T11:35:55;7.53;;;3.08;;
21721;SDS011;11023;48.274;7.794;2023-05-07T11:38:21;6.07;;;3.05;;
21721;SDS011;11023;48.274;7.794;2023-05-07T11:40:55;3.55;;;2.63;;
21721;SDS011;11023;48.274;7.794;2023-05-07T11:43:22;4.78;;;3.15;;
21721;SDS011;11023;48.274;7.794;2023-05-07T11:45:48;5.00;;;2.63;;
21721;SDS011;11023;48.274;7.794;2023-05-07T11:48:14;4.15;;;3.05;;
21721;SDS011;11023;48.274;7.794;2023-05-07T11:50:53;4.63;;;3.13;;
21721;SDS011;11023;48.274;7.794;2023-05-07T11:53:24;4.75;;;2.80;;
21721;SDS011;11023;48.274;7.794;2023-05-07T11:55:57;6.90;;;3.42;;
21721;SDS011;11023;48.274;7.794;2023-05-07T11:58:23;8.00;;;3.92;;
21721;SDS011;11023;48.274;7.794;2023-05-07T12:00:53;8.80;;;3.45;;
21721;SDS011;11023;48.274;7.794;2023-05-07T12:03:19;4.03;;;2.80;;
21721;SDS011;11023;48.274;7.794;2023-05-07T12:05:46;6.75;;;3.72;;
21721;SDS011;11023;48.274;7.794;2023-05-07T12:08:16;6.20;;;3.38;;
21721;SDS011;11023;48.274;7.794;2023-05-07T12:10:42;5.15;;;3.55;;
21721;SDS011;11023;48.274;7.794;2023-05-07T12:13:19;3.85;;;2.95;;
21721;SDS011;11023;48.274;7.794;2023-05-07T12:15:46;6.18;;;3.40;;
21721;SDS011;11023;48.274;7.794;2023-05-07T12:18:15;3.85;;;3.20;;
21721;SDS011;11023;48.274;7.794;2023-05-07T12:20:41;4.00;;;3.00;;
21721;SDS011;11023;48.274;7.794;2023-05-07T12:23:07;3.72;;;3.33;;
21721;SDS011;11023;48.274;7.794;2023-05-07T12:25:37;4.18;;;3.25;;
21721;SDS011;11023;48.274;7.794;2023-05-07T12:28:03;5.50;;;3.08;;
21721;SDS011;11023;48.274;7.794;2023-05-07T12:30:39;5.40;;;3.40;;
21721;SDS011;11023;48.274;7.794;2023-05-07T12:33:05;6.40;;;3.80;;
21721;SDS011;11023;48.274;7.794;2023-05-07T12:35:32;5.43;;;3.92;;
21721;SDS011;11023;48.274;7.794;2023-05-07T12:38:04;6.67;;;3.60;;
21721;SDS011;11023;48.274;7.794;2023-05-07T12:40:45;5.20;;;3.85;;
21721;SDS011;11023;48.274;7.794;2023-05-07T12:43:16;5.57;;;3.50;;
21721;SDS011;11023;48.274;7.794;2023-05-07T12:45:43;6.43;;;3.90;;
21721;SDS011;11023;48.274;7.794;2023-05-07T12:48:10;6.03;;;3.42;;
21721;SDS011;11023;48.274;7.794;2023-05-07T12:50:36;7.47;;;4.55;;
21721;SDS011;11023;48.274;7.794;2023-05-07T12:53:06;6.15;;;4.28;;
21721;SDS011;11023;48.274;7.794;2023-05-07T12:55:40;5.45;;;4.15;;
21721;SDS011;11023;48.274;7.794;2023-05-07T12:58:19;4.75;;;3.88;;
21721;SDS011;11023;48.274;7.794;2023-05-07T13:00:49;4.32;;;3.92;;
21721;SDS011;11023;48.274;7.794;2023-05-07T13:03:29;4.80;;;3.17;;
21721;SDS011;11023;48.274;7.794;2023-05-07T13:06:01;7.30;;;3.70;;
21721;SDS011;11023;48.274;7.794;2023-05-07T13:11:10;4.57;;;3.00;;
21721;SDS011;11023;48.274;7.794;2023-05-07T13:13:37;4.55;;;3.40;;
21721;SDS011;11023;48.274;7.794;2023-05-07T13:16:04;2.75;;;2.00;;
21721;SDS011;11023;48.274;7.794;2023-05-07T13:18:31;1.33;;;1.23;;
21721;SDS011;11023;48.274;7.794;2023-05-07T13:20:58;1.75;;;1.10;;
21721;SDS011;11023;48.274;7.794;2023-05-07T13:23:25;1.55;;;1.00;;
21721;SDS011;11023;48.274;7.794;2023-05-07T13:25:51;0.90;;;0.90;;
21721;SDS011;11023;48.274;7.794;2023-05-07T13:28:20;1.15;;;0.80;;
21721;SDS011;11023;48.274;7.794;2023-05-07T13:30:47;1.17;;;1.08;;
21721;SDS011;11023;48.274;7.794;2023-05-07T13:33:13;2.60;;;1.05;;
21721;SDS011;11023;48.274;7.794;2023-05-07T13:35:40;1.50;;;1.20;;
21721;SDS011;11023;48.274;7.794;2023-05-07T13:38:06;1.80;;;0.98;;
21721;SDS011;11023;48.274;7.794;2023-05-07T13:40:33;1.65;;;1.33;;
21721;SDS011;11023;48.274;7.794;2023-05-07T13:42:59;1.90;;;1.10;;
21721;SDS011;11023;48.274;7.794;2023-05-07T13:45:28;2.42;;;1.30;;
21721;SDS011;11023;48.274;7.794;2023-05-07T13:47:55;2.15;;;1.00;;
21721;SDS011;11023;48.274;7.794;2023-05-07T13:50:21;2.67;;;1.15;;
21721;SDS011;11023;48.274;7.794;2023-05-07T13:52:47;1.45;;;1.00;;
21721;SDS011;11023;48.274;7.794;2023-05-07T13:55:16;3.75;;;1.30;;
21721;SDS011;11023;48.274;7.794;2023-05-07T13:57:43;3.45;;;1.05;;
21721;SDS011;11023;48.274;7.794;2023-05-07T14:00:09;2.22;;;1.30;;
21721;SDS011;11023;48.274;7.794;2023-05-07T14:02:35;1.05;;;0.95;;
21721;SDS011;11023;48.274;7.794;2023-05-07T14:05:00;1.15;;;1.10;;
21721;SDS011;11023;48.274;7.794;2023-05-07T14:07:26;2.17;;;1.00;;
21721;SDS011;11023;48.274;7.794;2023-05-07T14:09:52;1.98;;;1.13;;
21721;SDS011;11023;48.274;7.794;2023-05-07T14:12:17;2.38;;;1.30;;
21721;SDS011;11023;48.274;7.794;2023-05-07T14:14:43;2.78;;;1.30;;
21721;SDS011;11023;48.274;7.794;2023-05-07T14:17:10;3.17;;;1.30;;
21721;SDS011;11023;48.274;7.794;2023-05-07T14:19:36;1.80;;;1.27;;
21721;SDS011;11023;48.274;7.794;2023-05-07T14:22:01;2.58;;;1.10;;
21721;SDS011;11023;48.274;7.794;2023-05-07T14:24:27;2.40;;;1.33;;
21721;SDS011;11023;48.274;7.794;2023-05-07T14:26:53;3.47;;;1.50;;
21721;SDS011;11023;48.274;7.794;2023-05-07T14:29:18;3.85;;;1.40;;
21721;SDS011;11023;48.274;7.794;2023-05-07T14:31:44;2.40;;;1.50;;
21721;SDS011;11023;48.274;7.794;2023-05-07T14:34:10;2.78;;;1.58;;
21721;SDS011;11023;48.274;7.794;2023-05-07T14:36:36;2.30;;;1.80;;
21721;SDS011;11023;48.274;7.794;2023-05-07T14:39:03;1.83;;;1.73;;
21721;SDS011;11023;48.274;7.794;2023-05-07T14:41:29;2.55;;;1.52;;
21721;SDS011;11023;48.274;7.794;2023-05-07T14:43:54;3.40;;;1.90;;
21721;SDS011;11023;48.274;7.794;2023-05-07T14:46:20;2.20;;;1.63;;
21721;SDS011;11023;48.274;7.794;2023-05-07T14:48:46;1.60;;;1.50;;
21721;SDS011;11023;48.274;7.794;2023-05-07T14:51:12;2.30;;;1.60;;
21721;SDS011;11023;48.274;7.794;2023-05-07T14:53:38;2.53;;;1.70;;
21721;SDS011;11023;48.274;7.794;2023-05-07T14:56:06;2.03;;;1.33;;
21721;SDS011;11023;48.274;7.794;2023-05-07T14:58:31;2.10;;;1.23;;
21721;SDS011;11023;48.274;7.794;2023-05-07T15:00:58;2.67;;;1.58;;
21721;SDS011;11023;48.274;7.794;2023-05-07T15:03:24;1.70;;;1.00;;
21721;SDS011;11023;48.274;7.794;2023-05-07T15:05:50;1.48;;;1.20;;
21721;SDS011;11023;48.274;7.794;2023-05-07T15:08:16;2.92;;;1.38;;
21721;SDS011;11023;48.274;7.794;2023-05-07T15:10:43;1.85;;;1.00;;
21721;SDS011;11023;48.274;7.794;2023-05-07T15:13:08;1.15;;;1.00;;